createdAt,value
2016-10-27T03:00:50.410Z,1028.34
2016-10-27T03:01:15.956Z,1028.36
2016-10-27T03:01:41.523Z,1028.32
2016-10-27T03:02:07.092Z,1028.32
2016-10-27T03:02:33.065Z,1028.3
2016-10-27T03:02:58.643Z,1028.32
2016-10-27T03:03:24.199Z,1028.35
2016-10-27T03:03:50.420Z,1028.35
2016-10-27T03:04:15.983Z,1028.35
2016-10-27T03:04:42.260Z,1028.34
2016-10-27T03:05:07.936Z,1028.32
2016-10-27T03:05:33.566Z,1028.37
2016-10-27T03:05:59.586Z,1028.34
2016-10-27T03:06:25.147Z,1028.35
2016-10-27T03:06:51.409Z,1028.37
2016-10-27T03:07:16.954Z,1028.34
2016-10-27T03:07:43.155Z,1028.37
2016-10-27T03:08:08.717Z,1028.39
2016-10-27T03:08:34.245Z,1028.36
2016-10-27T03:09:00.648Z,1028.36
2016-10-27T03:09:26.210Z,1028.38
2016-10-27T03:09:52.462Z,1028.43
2016-10-27T03:10:18.086Z,1028.46
2016-10-27T03:11:21.305Z,1028.43
2016-10-27T03:11:46.865Z,1028.44
2016-10-27T03:12:12.429Z,1028.47
2016-10-27T03:12:38.013Z,1028.47
2016-10-27T03:13:03.574Z,1028.45
2016-10-27T03:13:29.237Z,1028.46
2016-10-27T03:13:54.786Z,1028.49
2016-10-27T03:14:20.343Z,1028.46
2016-10-27T03:14:45.911Z,1028.45
2016-10-27T03:15:11.471Z,1028.48
2016-10-27T03:15:37.026Z,1028.47
2016-10-27T03:16:02.584Z,1028.46
2016-10-27T03:16:28.111Z,1028.45
2016-10-27T03:16:53.680Z,1028.48
2016-10-27T03:17:19.228Z,1028.5
2016-10-27T03:17:44.793Z,1028.48
2016-10-27T03:18:10.371Z,1028.46
2016-10-27T03:18:36.719Z,1028.51
2016-10-27T03:19:02.323Z,1028.53
2016-10-27T03:19:27.864Z,1028.5
2016-10-27T03:19:53.425Z,1028.46
2016-10-27T03:20:19.106Z,1028.5
2016-10-27T03:20:44.656Z,1028.47
2016-10-27T03:21:10.294Z,1028.47
2016-10-27T03:21:35.957Z,1028.47
2016-10-27T03:22:01.515Z,1028.45
2016-10-27T03:22:27.045Z,1028.43
2016-10-27T03:22:52.765Z,1028.4
2016-10-27T03:23:18.322Z,1028.41
2016-10-27T03:23:43.894Z,1028.42
2016-10-27T03:24:09.514Z,1028.44
2016-10-27T03:24:35.081Z,1028.43
2016-10-27T03:25:00.644Z,1028.4
2016-10-27T03:25:26.187Z,1028.39
2016-10-27T03:26:24.508Z,1028.39
2016-10-27T03:26:50.059Z,1028.42
2016-10-27T03:27:15.727Z,1028.44
2016-10-27T03:27:41.379Z,1028.48
2016-10-27T03:28:06.933Z,1028.42
2016-10-27T03:28:32.556Z,1028.45
2016-10-27T03:28:58.193Z,1028.48
2016-10-27T03:29:23.760Z,1028.46
2016-10-27T03:29:49.410Z,1028.48
2016-10-27T03:30:14.975Z,1028.51
2016-10-27T03:30:40.542Z,1028.48
2016-10-27T03:31:06.086Z,1028.49
2016-10-27T03:32:14.409Z,1028.46
2016-10-27T03:32:39.958Z,1028.46
2016-10-27T03:33:05.519Z,1028.45
2016-10-27T03:34:24.196Z,1028.49
2016-10-27T03:34:49.835Z,1028.47
2016-10-27T03:35:15.407Z,1028.46
2016-10-27T03:35:40.969Z,1028.48
2016-10-27T03:36:06.602Z,1028.49
2016-10-27T03:36:32.171Z,1028.49
2016-10-27T03:36:57.723Z,1028.49
2016-10-27T03:37:23.284Z,1028.53
2016-10-27T03:37:49.042Z,1028.46
2016-10-27T03:38:14.590Z,1028.49
2016-10-27T03:38:40.183Z,1028.49
2016-10-27T03:39:05.808Z,1028.52
2016-10-27T03:39:31.405Z,1028.49
2016-10-27T03:39:56.960Z,1028.54
2016-10-27T03:40:22.500Z,1028.53
2016-10-27T03:41:41.093Z,1028.52
2016-10-27T03:42:06.673Z,1028.53
2016-10-27T03:44:14.160Z,1028.49
2016-10-27T03:44:48.161Z,1028.51
2016-10-27T03:45:13.727Z,1028.51
2016-10-27T03:46:22.031Z,1028.48
2016-10-27T03:46:47.612Z,1028.52
2016-10-27T03:47:13.160Z,1028.53
2016-10-27T03:47:38.711Z,1028.54
2016-10-27T03:48:04.462Z,1028.5
2016-10-27T03:48:30.028Z,1028.5
2016-10-27T03:48:55.594Z,1028.53
2016-10-27T03:49:21.161Z,1028.5
2016-10-27T03:50:24.485Z,1028.52
2016-10-27T03:50:50.036Z,1028.49
2016-10-27T03:51:15.589Z,1028.45
2016-10-27T03:52:29.027Z,1028.46
2016-10-27T03:52:54.579Z,1028.48
2016-10-27T03:53:20.424Z,1028.5
2016-10-27T03:53:46.120Z,1028.48
2016-10-27T03:54:11.686Z,1028.44
2016-10-27T03:54:37.242Z,1028.47
2016-10-27T03:55:02.832Z,1028.48
2016-10-27T03:55:28.380Z,1028.51
2016-10-27T03:55:53.937Z,1028.48
2016-10-27T03:56:19.564Z,1028.47
2016-10-27T03:56:45.218Z,1028.51
2016-10-27T03:57:10.791Z,1028.46
2016-10-27T03:57:36.438Z,1028.47
2016-10-27T03:58:02.100Z,1028.49
2016-10-27T03:58:27.668Z,1028.5
2016-10-27T03:58:53.286Z,1028.51
2016-10-27T03:59:18.863Z,1028.49
2016-10-27T03:59:44.441Z,1028.47
2016-10-27T04:00:09.999Z,1028.47
2016-10-27T04:00:35.660Z,1028.48
2016-10-27T04:01:01.206Z,1028.49
2016-10-27T04:01:26.776Z,1028.5
2016-10-27T04:01:52.342Z,1028.46
2016-10-27T04:02:17.888Z,1028.5
2016-10-27T04:02:43.435Z,1028.45
2016-10-27T04:03:08.992Z,1028.51
2016-10-27T04:03:34.532Z,1028.46
2016-10-27T04:04:00.165Z,1028.46
2016-10-27T04:04:25.738Z,1028.46
2016-10-27T04:04:51.294Z,1028.53
2016-10-27T04:05:16.867Z,1028.44
2016-10-27T04:05:42.572Z,1028.48
2016-10-27T04:06:08.178Z,1028.62
2016-10-27T04:06:33.736Z,1028.54
2016-10-27T04:06:59.399Z,1028.6
2016-10-27T04:07:24.972Z,1028.63
2016-10-27T04:07:50.525Z,1028.62
2016-10-27T04:08:16.107Z,1028.52
2016-10-27T04:08:41.738Z,1028.56
2016-10-27T04:09:07.313Z,1028.57
2016-10-27T04:09:32.887Z,1028.54
2016-10-27T04:09:58.442Z,1028.58
2016-10-27T04:10:24.008Z,1028.55
2016-10-27T04:11:32.628Z,1028.57
2016-10-27T04:11:58.213Z,1028.58
2016-10-27T04:12:23.781Z,1028.57
2016-10-27T04:12:49.336Z,1028.62
2016-10-27T04:13:14.909Z,1028.61
2016-10-27T04:13:40.535Z,1028.64
2016-10-27T04:14:06.101Z,1028.59
2016-10-27T04:14:31.683Z,1028.61
2016-10-27T04:14:57.262Z,1028.68
2016-10-27T04:16:00.553Z,1028.67
2016-10-27T04:16:26.142Z,1028.66
2016-10-27T04:16:51.703Z,1028.6
2016-10-27T04:17:17.258Z,1028.67
2016-10-27T04:17:42.813Z,1028.64
2016-10-27T04:18:08.381Z,1028.64
2016-10-27T04:18:33.986Z,1028.65
2016-10-27T04:18:59.562Z,1028.62
2016-10-27T04:19:25.111Z,1028.66
2016-10-27T04:19:50.694Z,1028.67
2016-10-27T04:20:16.270Z,1028.68
2016-10-27T04:20:41.834Z,1028.67
2016-10-27T04:21:07.383Z,1028.71
2016-10-27T04:21:32.997Z,1028.68
2016-10-27T04:21:58.552Z,1028.72
2016-10-27T04:22:24.091Z,1028.67
2016-10-27T04:23:27.338Z,1028.7
2016-10-27T04:23:53.023Z,1028.75
2016-10-27T04:24:18.573Z,1028.69
2016-10-27T04:24:44.143Z,1028.73
2016-10-27T04:25:09.803Z,1028.66
2016-10-27T04:25:35.418Z,1028.73
2016-10-27T04:26:00.999Z,1028.7
2016-10-27T04:26:26.527Z,1028.66
2016-10-27T04:26:52.087Z,1028.68
2016-10-27T04:27:17.660Z,1028.66
2016-10-27T04:27:43.224Z,1028.67
2016-10-27T04:28:08.780Z,1028.73
2016-10-27T04:28:34.380Z,1028.71
2016-10-27T04:28:59.987Z,1028.71
2016-10-27T04:29:25.552Z,1028.65
2016-10-27T04:29:51.127Z,1028.68
2016-10-27T04:30:16.680Z,1028.7
2016-10-27T04:30:42.303Z,1028.7
2016-10-27T04:31:07.871Z,1028.66
2016-10-27T04:31:33.434Z,1028.68
2016-10-27T04:31:58.993Z,1028.75
2016-10-27T04:32:24.574Z,1028.72
2016-10-27T04:32:50.140Z,1028.74
2016-10-27T04:33:15.706Z,1028.74
2016-10-27T04:33:41.266Z,1028.76
2016-10-27T04:34:06.884Z,1028.69
2016-10-27T04:34:32.442Z,1028.72
2016-10-27T04:34:58.012Z,1028.76
2016-10-27T04:35:23.577Z,1028.72
2016-10-27T04:35:49.138Z,1028.75
2016-10-27T04:36:14.699Z,1028.69
2016-10-27T04:36:40.313Z,1028.79
2016-10-27T04:37:05.890Z,1028.73
2016-10-27T04:37:31.463Z,1028.72
2016-10-27T04:37:57.022Z,1028.74
2016-10-27T04:38:22.595Z,1028.8
2016-10-27T04:38:48.163Z,1028.8
2016-10-27T04:39:13.735Z,1028.75
2016-10-27T04:39:39.340Z,1028.78
2016-10-27T04:40:04.904Z,1028.75
2016-10-27T04:40:30.470Z,1028.79
2016-10-27T04:40:56.068Z,1028.78
2016-10-27T04:41:21.636Z,1028.79
2016-10-27T04:41:47.218Z,1028.82
2016-10-27T04:42:12.777Z,1028.78
2016-10-27T04:42:38.363Z,1028.79
2016-10-27T04:43:03.927Z,1028.82
2016-10-27T04:43:29.491Z,1028.78
2016-10-27T04:43:55.112Z,1028.83
2016-10-27T04:44:20.660Z,1028.87
2016-10-27T04:44:46.287Z,1028.82
2016-10-27T04:45:11.883Z,1028.82
2016-10-27T04:45:37.432Z,1028.87
2016-10-27T04:46:03.030Z,1028.81
2016-10-27T04:46:28.977Z,1028.84
2016-10-27T04:46:54.163Z,1028.95
2016-10-27T04:47:19.753Z,1028.89
2016-10-27T04:47:45.344Z,1028.85
2016-10-27T04:48:10.918Z,1028.87
2016-10-27T04:48:36.494Z,1028.87
2016-10-27T04:49:02.066Z,1028.88
2016-10-27T04:49:27.637Z,1028.9
2016-10-27T04:49:53.200Z,1028.88
2016-10-27T04:50:18.758Z,1028.89
2016-10-27T04:50:44.321Z,1028.89
2016-10-27T04:51:09.883Z,1028.9
2016-10-27T04:51:35.472Z,1028.89
2016-10-27T04:52:01.038Z,1028.9
2016-10-27T04:52:26.623Z,1028.89
2016-10-27T04:52:52.190Z,1028.89
2016-10-27T04:53:17.750Z,1028.94
2016-10-27T04:53:43.320Z,1028.9
2016-10-27T04:54:09.076Z,1028.89
2016-10-27T04:54:34.651Z,1028.89
2016-10-27T04:55:00.208Z,1028.92
2016-10-27T04:55:25.863Z,1028.92
2016-10-27T04:55:51.433Z,1028.98
2016-10-27T04:56:16.992Z,1028.97
2016-10-27T04:56:42.651Z,1028.91
2016-10-27T04:57:08.236Z,1028.92
2016-10-27T04:57:33.823Z,1028.97
2016-10-27T04:57:59.460Z,1028.95
2016-10-27T04:58:25.058Z,1028.93
2016-10-27T04:58:50.623Z,1028.95
2016-10-27T04:59:16.253Z,1028.93
2016-10-27T04:59:41.842Z,1028.96
2016-10-27T05:00:07.404Z,1028.93
2016-10-27T05:00:32.958Z,1028.94
2016-10-27T05:00:58.689Z,1028.92
2016-10-27T05:01:24.240Z,1028.96
2016-10-27T05:01:49.813Z,1028.96
2016-10-27T05:02:15.386Z,1029.01
2016-10-27T05:02:41.039Z,1028.98
2016-10-27T05:03:06.576Z,1028.93
2016-10-27T05:03:32.149Z,1028.95
2016-10-27T05:03:57.783Z,1028.95
2016-10-27T05:04:23.452Z,1028.96
2016-10-27T05:04:49.015Z,1028.91
2016-10-27T05:05:14.568Z,1028.91
2016-10-27T05:06:28.154Z,1028.91
2016-10-27T05:06:53.715Z,1028.93
2016-10-27T05:07:19.279Z,1028.98
2016-10-27T05:07:44.865Z,1028.92
2016-10-27T05:08:10.434Z,1028.95
2016-10-27T05:08:35.996Z,1028.94
2016-10-27T05:09:01.560Z,1028.89
2016-10-27T05:09:27.122Z,1028.89
2016-10-27T05:09:52.684Z,1028.92
2016-10-27T05:10:18.252Z,1028.9
2016-10-27T05:10:43.805Z,1028.93
2016-10-27T05:11:09.368Z,1028.88
2016-10-27T05:11:35.046Z,1028.9
2016-10-27T05:12:00.599Z,1028.89
2016-10-27T05:12:26.170Z,1028.87
2016-10-27T05:12:51.724Z,1028.89
2016-10-27T05:13:17.293Z,1028.89
2016-10-27T05:13:42.858Z,1028.91
2016-10-27T05:14:08.407Z,1028.93
2016-10-27T05:14:33.973Z,1028.95
2016-10-27T05:14:59.554Z,1028.9
2016-10-27T05:15:25.126Z,1028.91
2016-10-27T05:15:50.695Z,1028.96
2016-10-27T05:16:16.258Z,1028.96
2016-10-27T05:16:41.832Z,1028.9
2016-10-27T05:17:07.425Z,1028.91
2016-10-27T05:17:32.991Z,1028.92
2016-10-27T05:17:58.548Z,1028.96
2016-10-27T05:18:24.095Z,1028.92
2016-10-27T05:18:49.790Z,1028.94
2016-10-27T05:19:15.375Z,1028.92
2016-10-27T05:19:40.945Z,1028.91
2016-10-27T05:20:06.506Z,1028.96
2016-10-27T05:20:32.133Z,1028.92
2016-10-27T05:20:57.763Z,1028.91
2016-10-27T05:21:23.341Z,1028.93
2016-10-27T05:21:48.931Z,1028.91
2016-10-27T05:22:14.516Z,1028.95
2016-10-27T05:22:40.083Z,1028.95
2016-10-27T05:23:05.701Z,1028.92
2016-10-27T05:23:31.313Z,1028.97
2016-10-27T05:23:56.879Z,1028.99
2016-10-27T05:24:22.458Z,1028.98
2016-10-27T05:24:48.006Z,1028.93
2016-10-27T05:25:13.577Z,1028.92
2016-10-27T05:25:39.155Z,1028.9
2016-10-27T05:26:04.696Z,1028.93
2016-10-27T05:26:30.283Z,1028.91
2016-10-27T05:26:55.932Z,1028.96
2016-10-27T05:27:21.518Z,1028.94
2016-10-27T05:27:47.091Z,1028.91
2016-10-27T05:28:12.645Z,1028.94
2016-10-27T05:28:38.215Z,1028.97
2016-10-27T05:29:03.779Z,1028.93
2016-10-27T05:29:29.347Z,1028.92
2016-10-27T05:29:54.920Z,1028.92
2016-10-27T05:30:20.478Z,1028.95
2016-10-27T05:33:16.641Z,1029.02
2016-10-27T05:33:49.621Z,1029.02
2016-10-27T05:34:15.160Z,1029.04
2016-10-27T05:34:40.729Z,1029.02
2016-10-27T05:35:06.471Z,1028.95
2016-10-27T05:35:32.091Z,1029
2016-10-27T05:35:57.668Z,1028.99
2016-10-27T05:36:23.235Z,1029
2016-10-27T05:36:48.780Z,1029.04
2016-10-27T05:37:14.337Z,1029.01
2016-10-27T05:37:39.884Z,1029.03
2016-10-27T05:38:05.430Z,1028.99
2016-10-27T05:38:30.988Z,1028.99
2016-10-27T05:41:17.303Z,1028.99
2016-10-27T05:41:49.724Z,1028.99
2016-10-27T05:42:15.297Z,1029
2016-10-27T05:42:40.852Z,1028.99
2016-10-27T05:43:06.414Z,1028.95
2016-10-27T05:43:31.978Z,1029
2016-10-27T05:43:57.584Z,1029.01
2016-10-27T05:44:23.231Z,1029
2016-10-27T05:44:48.765Z,1028.97
2016-10-27T05:45:14.395Z,1028.96
2016-10-27T05:45:40.012Z,1029
2016-10-27T05:46:05.589Z,1029
2016-10-27T05:46:31.156Z,1028.97
2016-10-27T05:46:56.847Z,1029.02
2016-10-27T05:47:22.407Z,1029.02
2016-10-27T05:47:48.039Z,1029.08
2016-10-27T05:48:13.617Z,1029.06
2016-10-27T05:48:39.191Z,1029.05
2016-10-27T05:49:04.759Z,1029.08
2016-10-27T05:49:30.337Z,1029.07
2016-10-27T05:49:55.912Z,1029.04
2016-10-27T05:50:21.462Z,1029.07
2016-10-27T05:50:47.109Z,1029.07
2016-10-27T05:51:12.797Z,1029.11
2016-10-27T05:51:38.328Z,1029.1
2016-10-27T05:52:03.906Z,1029.09
2016-10-27T05:52:29.553Z,1029.11
2016-10-27T05:52:55.182Z,1029.12
2016-10-27T05:53:20.759Z,1029.12
2016-10-27T05:53:46.490Z,1029.1
2016-10-27T05:54:12.058Z,1029.12
2016-10-27T05:54:37.615Z,1029.12
2016-10-27T05:55:03.179Z,1029.14
2016-10-27T05:55:28.798Z,1029.14
2016-10-27T05:55:54.378Z,1029.2
2016-10-27T05:56:19.952Z,1029.18
2016-10-27T05:56:45.622Z,1029.18
2016-10-27T05:57:11.239Z,1029.14
2016-10-27T05:57:36.805Z,1029.17
2016-10-27T05:58:02.402Z,1029.17
2016-10-27T05:58:28.682Z,1029.14
2016-10-27T05:58:54.258Z,1029.13
2016-10-27T05:59:19.842Z,1029.11
2016-10-27T05:59:45.402Z,1029.13
2016-10-27T06:00:10.993Z,1029.11
2016-10-27T06:01:24.452Z,1029.12
2016-10-27T06:01:50.035Z,1029.1
2016-10-27T06:02:15.595Z,1029.11
2016-10-27T06:02:41.166Z,1029.12
2016-10-27T06:03:06.722Z,1029.12
2016-10-27T06:03:32.285Z,1029.1
2016-10-27T06:03:57.862Z,1029.11
2016-10-27T06:04:23.497Z,1029.11
2016-10-27T06:04:49.042Z,1029.11
2016-10-27T06:05:14.591Z,1029.12
2016-10-27T06:05:40.172Z,1029.12
2016-10-27T06:06:05.733Z,1029.15
2016-10-27T06:06:31.284Z,1029.14
2016-10-27T06:06:56.867Z,1029.11
2016-10-27T06:07:22.493Z,1029.13
2016-10-27T06:07:48.066Z,1029.12
2016-10-27T06:08:13.659Z,1029.09
2016-10-27T06:08:39.249Z,1029.11
2016-10-27T06:09:04.810Z,1029.11
2016-10-27T06:09:30.383Z,1029.14
2016-10-27T06:09:55.941Z,1029.15
2016-10-27T06:10:21.500Z,1029.16
2016-10-27T06:10:47.106Z,1029.17
2016-10-27T06:11:12.650Z,1029.17
2016-10-27T06:11:38.274Z,1029.17
2016-10-27T06:12:03.900Z,1029.19
2016-10-27T06:12:29.460Z,1029.18
2016-10-27T06:12:55.037Z,1029.23
2016-10-27T06:13:20.584Z,1029.23
2016-10-27T06:13:46.168Z,1029.2
2016-10-27T06:14:11.738Z,1029.24
2016-10-27T06:14:37.380Z,1029.2
2016-10-27T06:15:02.914Z,1029.17
2016-10-27T06:15:28.490Z,1029.22
2016-10-27T06:15:54.043Z,1029.22
2016-10-27T06:16:19.615Z,1029.18
2016-10-27T06:16:45.215Z,1029.22
2016-10-27T06:17:10.838Z,1029.18
2016-10-27T06:17:36.452Z,1029.17
2016-10-27T06:18:02.001Z,1029.23
2016-10-27T06:18:27.713Z,1029.21
2016-10-27T06:18:53.285Z,1029.2
2016-10-27T06:19:18.827Z,1029.22
2016-10-27T06:20:32.344Z,1029.22
2016-10-27T06:20:57.906Z,1029.3
2016-10-27T06:21:23.480Z,1029.26
2016-10-27T06:21:49.035Z,1029.28
2016-10-27T06:22:14.699Z,1029.26
2016-10-27T06:22:40.256Z,1029.26
2016-10-27T06:23:05.827Z,1029.3
2016-10-27T06:23:31.506Z,1029.27
2016-10-27T06:23:57.088Z,1029.23
2016-10-27T06:24:22.657Z,1029.25
2016-10-27T06:24:48.201Z,1029.23
2016-10-27T06:25:13.793Z,1029.25
2016-10-27T06:26:27.261Z,1029.27
2016-10-27T06:26:52.822Z,1029.29
2016-10-27T06:27:18.449Z,1029.3
2016-10-27T06:27:44.002Z,1029.28
2016-10-27T06:28:09.549Z,1029.29
2016-10-27T06:28:35.098Z,1029.3
2016-10-27T06:29:00.662Z,1029.3
2016-10-27T06:29:26.226Z,1029.34
2016-10-27T06:29:51.849Z,1029.33
2016-10-27T06:30:17.418Z,1029.33
2016-10-27T06:30:42.976Z,1029.33
2016-10-27T06:31:08.623Z,1029.31
2016-10-27T06:31:34.187Z,1029.32
2016-10-27T06:31:59.744Z,1029.38
2016-10-27T06:32:25.323Z,1029.33
2016-10-27T06:32:50.944Z,1029.4
2016-10-27T06:33:16.525Z,1029.37
2016-10-27T06:33:42.097Z,1029.41
2016-10-27T06:34:07.639Z,1029.38
2016-10-27T06:34:33.194Z,1029.41
2016-10-27T06:34:58.801Z,1029.39
2016-10-27T06:35:24.368Z,1029.41
2016-10-27T06:36:27.590Z,1029.41
2016-10-27T06:36:53.128Z,1029.39
2016-10-27T06:37:18.686Z,1029.38
2016-10-27T06:38:32.129Z,1029.4
2016-10-27T06:39:35.324Z,1029.43
2016-10-27T06:40:00.892Z,1029.43
2016-10-27T06:40:26.457Z,1029.42
2016-10-27T06:40:52.004Z,1029.4
2016-10-27T06:41:17.562Z,1029.4
2016-10-27T06:41:43.125Z,1029.41
2016-10-27T06:42:08.698Z,1029.41
2016-10-27T06:42:34.449Z,1029.42
2016-10-27T06:43:00.052Z,1029.43
2016-10-27T06:43:25.617Z,1029.42
2016-10-27T06:43:51.180Z,1029.42
2016-10-27T06:44:16.727Z,1029.38
2016-10-27T06:44:42.291Z,1029.41
2016-10-27T06:45:07.869Z,1029.43
2016-10-27T06:45:33.431Z,1029.37
2016-10-27T06:45:59.131Z,1029.43
2016-10-27T06:46:24.704Z,1029.42
2016-10-27T06:46:50.254Z,1029.41
2016-10-27T06:47:15.841Z,1029.39
2016-10-27T06:47:41.474Z,1029.39
2016-10-27T06:48:07.020Z,1029.37
2016-10-27T06:48:32.568Z,1029.37
2016-10-27T06:48:58.125Z,1029.32
2016-10-27T06:49:23.681Z,1029.37
2016-10-27T06:49:49.270Z,1029.36
2016-10-27T06:50:14.846Z,1029.37
2016-10-27T06:50:40.411Z,1029.34
2016-10-27T06:51:05.971Z,1029.39
2016-10-27T06:51:31.529Z,1029.39
2016-10-27T06:51:57.082Z,1029.39
2016-10-27T06:52:22.655Z,1029.36
2016-10-27T06:52:48.200Z,1029.4
2016-10-27T06:53:13.765Z,1029.39
2016-10-27T06:53:39.320Z,1029.44
2016-10-27T06:54:04.893Z,1029.41
2016-10-27T06:54:30.609Z,1029.45
2016-10-27T06:54:56.160Z,1029.46
2016-10-27T06:55:21.720Z,1029.46
2016-10-27T06:55:47.286Z,1029.44
2016-10-27T06:56:12.839Z,1029.46
2016-10-27T06:56:38.421Z,1029.44
2016-10-27T06:57:04.041Z,1029.43
2016-10-27T06:57:29.598Z,1029.47
2016-10-27T06:57:55.154Z,1029.46
2016-10-27T06:58:20.757Z,1029.45
2016-10-27T06:58:46.340Z,1029.45
2016-10-27T06:59:11.902Z,1029.42
2016-10-27T06:59:37.460Z,1029.45
2016-10-27T07:00:03.031Z,1029.46
2016-10-27T07:00:28.617Z,1029.45
2016-10-27T07:00:54.192Z,1029.44
2016-10-27T07:01:19.759Z,1029.48
2016-10-27T07:01:45.397Z,1029.48
2016-10-27T07:02:10.981Z,1029.49
2016-10-27T07:02:36.524Z,1029.55
2016-10-27T07:03:02.087Z,1029.54
2016-10-27T07:03:27.699Z,1029.52
2016-10-27T07:03:53.253Z,1029.53
2016-10-27T07:04:18.792Z,1029.5
2016-10-27T07:04:44.390Z,1029.49
2016-10-27T07:05:09.942Z,1029.51
2016-10-27T07:06:28.563Z,1029.51
2016-10-27T07:06:54.136Z,1029.51
2016-10-27T07:07:19.698Z,1029.54
2016-10-27T07:07:45.251Z,1029.56
2016-10-27T07:08:10.851Z,1029.54
2016-10-27T07:08:36.411Z,1029.55
2016-10-27T07:09:01.955Z,1029.56
2016-10-27T07:09:27.540Z,1029.56
2016-10-27T07:09:53.054Z,1029.55
2016-10-27T07:10:18.590Z,1029.53
2016-10-27T07:10:44.134Z,1029.56
2016-10-27T07:11:09.689Z,1029.56
2016-10-27T07:11:35.270Z,1029.57
2016-10-27T07:12:00.835Z,1029.62
2016-10-27T07:12:26.402Z,1029.59
2016-10-27T07:12:52.024Z,1029.59
2016-10-27T07:13:17.574Z,1029.63
2016-10-27T07:13:43.132Z,1029.61
2016-10-27T07:14:08.686Z,1029.62
2016-10-27T07:14:34.234Z,1029.6
2016-10-27T07:14:59.789Z,1029.64
2016-10-27T07:15:25.376Z,1029.6
2016-10-27T07:15:50.932Z,1029.59
2016-10-27T07:16:16.560Z,1029.58
2016-10-27T07:16:42.147Z,1029.57
2016-10-27T07:17:07.709Z,1029.59
2016-10-27T07:17:33.372Z,1029.62
2016-10-27T07:17:58.984Z,1029.58
2016-10-27T07:18:24.553Z,1029.58
2016-10-27T07:18:50.113Z,1029.57
2016-10-27T07:19:15.697Z,1029.59
2016-10-27T07:19:41.269Z,1029.59
2016-10-27T07:20:06.824Z,1029.58
2016-10-27T07:20:32.368Z,1029.56
2016-10-27T07:20:57.921Z,1029.58
2016-10-27T07:21:23.501Z,1029.58
2016-10-27T07:21:49.171Z,1029.62
2016-10-27T07:22:14.736Z,1029.62
2016-10-27T07:23:33.314Z,1029.62
2016-10-27T07:23:58.899Z,1029.63
2016-10-27T07:25:17.449Z,1029.61
2016-10-27T07:25:43.016Z,1029.6
2016-10-27T07:26:08.589Z,1029.63
2016-10-27T07:26:34.140Z,1029.67
2016-10-27T07:26:59.710Z,1029.61
2016-10-27T07:27:25.259Z,1029.65
2016-10-27T07:27:50.890Z,1029.63
2016-10-27T07:28:16.457Z,1029.62
2016-10-27T07:28:42.085Z,1029.69
2016-10-27T07:29:07.651Z,1029.68
2016-10-27T07:29:33.309Z,1029.65
2016-10-27T07:29:58.776Z,1029.68
2016-10-27T07:30:24.386Z,1029.66
2016-10-27T07:30:49.943Z,1029.65
2016-10-27T07:31:15.587Z,1029.66
2016-10-27T07:31:41.163Z,1029.67
2016-10-27T07:32:06.717Z,1029.7
2016-10-27T07:32:32.277Z,1029.71
2016-10-27T07:32:57.889Z,1029.7
2016-10-27T07:33:23.459Z,1029.68
2016-10-27T07:33:49.003Z,1029.67
2016-10-27T07:34:14.835Z,1029.72
2016-10-27T07:34:40.405Z,1029.69
2016-10-27T07:35:05.963Z,1029.68
2016-10-27T07:35:31.547Z,1029.73
2016-10-27T07:35:57.166Z,1029.74
2016-10-27T07:36:22.731Z,1029.74
2016-10-27T07:36:48.276Z,1029.78
2016-10-27T07:37:13.997Z,1029.74
2016-10-27T07:37:39.569Z,1029.75
2016-10-27T07:38:05.147Z,1029.75
2016-10-27T07:38:30.739Z,1029.8
2016-10-27T07:38:56.333Z,1029.72
2016-10-27T07:39:21.923Z,1029.77
2016-10-27T07:39:47.581Z,1029.74
2016-10-27T07:40:13.179Z,1029.79
2016-10-27T07:40:38.767Z,1029.78
2016-10-27T07:41:04.373Z,1029.76
2016-10-27T07:41:30.011Z,1029.77
2016-10-27T07:41:55.588Z,1029.77
2016-10-27T07:42:21.136Z,1029.8
2016-10-27T07:42:46.798Z,1029.79
2016-10-27T07:43:12.363Z,1029.81
2016-10-27T07:43:37.916Z,1029.8
2016-10-27T07:44:03.616Z,1029.8
2016-10-27T07:44:29.147Z,1029.79
2016-10-27T07:44:54.736Z,1029.82
2016-10-27T07:45:20.317Z,1029.85
2016-10-27T07:45:45.875Z,1029.83
2016-10-27T07:46:11.455Z,1029.85
2016-10-27T07:46:36.981Z,1029.84
2016-10-27T07:47:02.549Z,1029.86
2016-10-27T07:47:28.125Z,1029.85
2016-10-27T07:48:31.328Z,1029.9
2016-10-27T07:49:29.423Z,1029.81
2016-10-27T07:49:54.990Z,1029.83
2016-10-27T07:50:20.532Z,1029.91
2016-10-27T07:50:46.088Z,1029.88
2016-10-27T07:51:11.697Z,1029.93
2016-10-27T07:51:37.284Z,1029.93
2016-10-27T07:52:02.849Z,1029.9
2016-10-27T07:53:16.378Z,1029.87
2016-10-27T07:53:41.972Z,1029.89
2016-10-27T07:54:07.543Z,1029.85
2016-10-27T07:54:33.104Z,1029.81
2016-10-27T07:57:18.010Z,1029.82
2016-10-27T07:57:43.552Z,1029.78
2016-10-27T07:58:09.120Z,1029.83
2016-10-27T07:58:34.771Z,1029.8
2016-10-27T07:59:00.346Z,1029.78
2016-10-27T07:59:25.904Z,1029.78
2016-10-27T07:59:51.571Z,1029.78
2016-10-27T08:00:17.144Z,1029.8
2016-10-27T08:00:42.685Z,1029.81
2016-10-27T08:01:08.297Z,1029.8
2016-10-27T08:01:33.913Z,1029.8
2016-10-27T08:01:59.476Z,1029.82
2016-10-27T08:02:25.088Z,1029.85
2016-10-27T08:02:50.640Z,1029.83
2016-10-27T08:03:16.189Z,1029.86
2016-10-27T08:03:41.768Z,1029.86
2016-10-27T08:04:07.344Z,1029.88
2016-10-27T08:05:15.667Z,1029.88
2016-10-27T08:05:41.214Z,1029.85
2016-10-27T08:06:06.787Z,1029.89
2016-10-27T08:06:32.371Z,1029.85
2016-10-27T08:06:57.946Z,1029.9
2016-10-27T08:07:23.498Z,1029.89
2016-10-27T08:07:49.070Z,1029.89
2016-10-27T08:08:14.606Z,1029.91
2016-10-27T08:08:40.195Z,1029.88
2016-10-27T08:09:05.759Z,1029.89
2016-10-27T08:09:31.324Z,1029.91
2016-10-27T08:09:56.880Z,1029.87
2016-10-27T08:10:22.435Z,1029.89
2016-10-27T08:10:48.008Z,1029.88
2016-10-27T08:11:13.822Z,1029.96
2016-10-27T08:11:39.413Z,1029.91
2016-10-27T08:12:04.957Z,1029.93
2016-10-27T08:12:30.513Z,1029.95
2016-10-27T08:12:56.064Z,1029.97
2016-10-27T08:13:21.604Z,1029.97
2016-10-27T08:13:47.227Z,1029.96
2016-10-27T08:14:12.805Z,1029.94
2016-10-27T08:14:38.359Z,1029.94
2016-10-27T08:15:03.928Z,1029.98
2016-10-27T08:15:29.534Z,1029.94
2016-10-27T08:15:55.121Z,1030
2016-10-27T08:16:20.760Z,1030
2016-10-27T08:16:46.324Z,1030.01
2016-10-27T08:17:11.889Z,1030.02
2016-10-27T08:17:37.569Z,1030.02
2016-10-27T08:18:03.141Z,1030.01
2016-10-27T08:18:28.686Z,1030.05
2016-10-27T08:18:54.238Z,1030.03
2016-10-27T08:19:19.790Z,1029.97
2016-10-27T08:19:45.350Z,1030
2016-10-27T08:20:10.914Z,1030.05
2016-10-27T08:20:36.466Z,1030.05
2016-10-27T08:21:02.019Z,1030.04
2016-10-27T08:21:27.558Z,1030.03
2016-10-27T08:21:53.118Z,1030.04
2016-10-27T08:22:18.671Z,1030.06
2016-10-27T08:22:44.238Z,1030.06
2016-10-27T08:23:09.785Z,1030.06
2016-10-27T08:23:35.461Z,1030.07
2016-10-27T08:24:01.117Z,1030.08
2016-10-27T08:24:26.688Z,1030.06
2016-10-27T08:24:52.235Z,1030.09
2016-10-27T08:25:17.787Z,1030.11
2016-10-27T08:25:43.389Z,1030.08
2016-10-27T08:26:08.949Z,1030.13
2016-10-27T08:26:34.500Z,1030.08
2016-10-27T08:27:00.048Z,1030.08
2016-10-27T08:27:25.714Z,1030.14
2016-10-27T08:27:51.304Z,1030.09
2016-10-27T08:28:16.857Z,1030.14
2016-10-27T08:28:42.512Z,1030.11
2016-10-27T08:29:08.075Z,1030.13
2016-10-27T08:29:33.641Z,1030.2
2016-10-27T08:29:59.237Z,1030.16
2016-10-27T08:30:24.877Z,1030.18
2016-10-27T08:30:50.549Z,1030.21
2016-10-27T08:31:16.109Z,1030.15
2016-10-27T08:31:41.679Z,1030.2
2016-10-27T08:32:07.238Z,1030.19
2016-10-27T08:32:32.809Z,1030.19
2016-10-27T08:32:58.469Z,1030.19
2016-10-27T08:33:24.124Z,1030.2
2016-10-27T08:33:49.676Z,1030.23
2016-10-27T08:34:15.246Z,1030.26
2016-10-27T08:34:40.944Z,1030.26
2016-10-27T08:35:06.539Z,1030.27
2016-10-27T08:35:32.107Z,1030.21
2016-10-27T08:35:57.740Z,1030.24
2016-10-27T08:36:23.316Z,1030.26
2016-10-27T08:36:48.881Z,1030.3
2016-10-27T08:37:14.620Z,1030.26
2016-10-27T08:37:40.194Z,1030.24
2016-10-27T08:38:05.787Z,1030.24
2016-10-27T08:38:31.354Z,1030.26
2016-10-27T08:38:56.958Z,1030.28